sensor_id;sensor_type;location;lat;lon;timestamp;pressure;altitude;pressure_sealevel;temperature;humidity
73651;BME280;61944;52.538;6.108;2022-09-13T00:01:25;100963.13;;;18.95;80.95
73651;BME280;61944;52.538;6.108;2022-09-13T00:03:50;100952.75;;;19.08;77.86
73651;BME280;61944;52.538;6.108;2022-09-13T00:06:18;100963.38;;;19.04;77.76
73651;BME280;61944;52.538;6.108;2022-09-13T00:08:44;100961.25;;;19.08;77.02
73651;BME280;61944;52.538;6.108;2022-09-13T00:11:21;100968.53;;;19.09;78.04
73651;BME280;61944;52.538;6.108;2022-09-13T00:13:46;100980.03;;;18.78;81.43
73651;BME280;61944;52.538;6.108;2022-09-13T00:16:14;100981.75;;;18.72;86.83
73651;BME280;61944;52.538;6.108;2022-09-13T00:18:41;100984.41;;;18.83;85.02
73651;BME280;61944;52.538;6.108;2022-09-13T00:21:08;100978.53;;;18.94;82.05
73651;BME280;61944;52.538;6.108;2022-09-13T00:23:35;100976.94;;;18.93;81.53
73651;BME280;61944;52.538;6.108;2022-09-13T00:26:22;100972.25;;;18.82;86.93
73651;BME280;61944;52.538;6.108;2022-09-13T00:28:49;100963.47;;;18.97;80.18
73651;BME280;61944;52.538;6.108;2022-09-13T00:31:15;100957.44;;;18.95;83.19
73651;BME280;61944;52.538;6.108;2022-09-13T00:33:41;100964.72;;;18.96;82.64
73651;BME280;61944;52.538;6.108;2022-09-13T00:36:09;100964.72;;;18.96;79.48
73651;BME280;61944;52.538;6.108;2022-09-13T00:38:38;100964.84;;;18.88;82.34
73651;BME280;61944;52.538;6.108;2022-09-13T00:41:06;100964.94;;;18.85;80.68
73651;BME280;61944;52.538;6.108;2022-09-13T00:44:04;100950.66;;;18.88;83.39
73651;BME280;61944;52.538;6.108;2022-09-13T00:46:41;100946.88;;;18.95;81.65
73651;BME280;61944;52.538;6.108;2022-09-13T00:49:18;100949.94;;;18.84;81.54
73651;BME280;61944;52.538;6.108;2022-09-13T00:51:49;100942.97;;;18.89;82.23
73651;BME280;61944;52.538;6.108;2022-09-13T00:54:17;100941.38;;;18.88;81.36
73651;BME280;61944;52.538;6.108;2022-09-13T00:56:47;100934.16;;;18.83;82.90
73651;BME280;61944;52.538;6.108;2022-09-13T00:59:18;100936.50;;;18.88;81.65
73651;BME280;61944;52.538;6.108;2022-09-13T01:01:53;100929.28;;;18.84;81.22
73651;BME280;61944;52.538;6.108;2022-09-13T01:04:21;100931.69;;;18.85;82.15
73651;BME280;61944;52.538;6.108;2022-09-13T01:06:48;100923.72;;;18.77;83.23
73651;BME280;61944;52.538;6.108;2022-09-13T01:09:15;100930.72;;;18.72;82.93
73651;BME280;61944;52.538;6.108;2022-09-13T01:12:00;100928.66;;;18.73;84.08
73651;BME280;61944;52.538;6.108;2022-09-13T01:14:30;100931.41;;;18.76;82.31
73651;BME280;61944;52.538;6.108;2022-09-13T01:16:56;100933.44;;;18.79;81.64
73651;BME280;61944;52.538;6.108;2022-09-13T01:19:22;100935.84;;;18.81;82.89
73651;BME280;61944;52.538;6.108;2022-09-13T01:35:25;100926.25;;;18.71;83.01
73651;BME280;61944;52.538;6.108;2022-09-13T01:43:10;100911.66;;;18.73;85.33
73651;BME280;61944;52.538;6.108;2022-09-13T01:52:04;100898.28;;;18.73;82.78
73651;BME280;61944;52.538;6.108;2022-09-13T01:54:44;100896.31;;;18.70;83.02
73651;BME280;61944;52.538;6.108;2022-09-13T01:57:57;100902.00;;;18.70;82.87
73651;BME280;61944;52.538;6.108;2022-09-13T02:00:27;100895.50;;;18.69;83.71
73651;BME280;61944;52.538;6.108;2022-09-13T02:03:06;100897.91;;;18.71;82.58
73651;BME280;61944;52.538;6.108;2022-09-13T02:05:38;100891.44;;;18.71;83.08
73651;BME280;61944;52.538;6.108;2022-09-13T02:08:15;100903.72;;;18.64;82.54
73651;BME280;61944;52.538;6.108;2022-09-13T02:10:50;100900.88;;;18.64;83.56
73651;BME280;61944;52.538;6.108;2022-09-13T02:13:22;100893.47;;;18.70;82.55
73651;BME280;61944;52.538;6.108;2022-09-13T02:15:54;100902.00;;;18.70;83.39
73651;BME280;61944;52.538;6.108;2022-09-13T02:18:26;100902.41;;;18.68;83.39
73651;BME280;61944;52.538;6.108;2022-09-13T02:21:00;100902.78;;;18.71;83.62
73651;BME280;61944;52.538;6.108;2022-09-13T02:23:32;100900.38;;;18.69;85.15
73651;BME280;61944;52.538;6.108;2022-09-13T02:25:59;100897.16;;;18.67;83.01
73651;BME280;61944;52.538;6.108;2022-09-13T02:28:37;100899.84;;;18.54;84.62
73651;BME280;61944;52.538;6.108;2022-09-13T02:31:07;100901.38;;;18.59;83.78
73651;BME280;61944;52.538;6.108;2022-09-13T02:33:38;100896.31;;;18.46;92.93
73651;BME280;61944;52.538;6.108;2022-09-13T02:36:14;100897.63;;;18.42;87.75
73651;BME280;61944;52.538;6.108;2022-09-13T02:38:45;100884.53;;;18.28;90.52
73651;BME280;61944;52.538;6.108;2022-09-13T02:41:24;100902.00;;;18.46;92.15
73651;BME280;61944;52.538;6.108;2022-09-13T02:44:12;100903.47;;;18.55;90.73
73651;BME280;61944;52.538;6.108;2022-09-13T02:46:59;100895.03;;;18.51;87.00
73651;BME280;61944;52.538;6.108;2022-09-13T02:49:55;100903.97;;;18.49;87.10
73651;BME280;61944;52.538;6.108;2022-09-13T02:52:57;100899.34;;;18.36;91.60
73651;BME280;61944;52.538;6.108;2022-09-13T02:56:02;100905.00;;;18.36;88.34
73651;BME280;61944;52.538;6.108;2022-09-13T03:00:45;100905.75;;;18.40;90.76
73651;BME280;61944;52.538;6.108;2022-09-13T03:03:13;100897.81;;;18.31;89.50
73651;BME280;61944;52.538;6.108;2022-09-13T03:05:40;100904.03;;;18.46;87.83
73651;BME280;61944;52.538;6.108;2022-09-13T03:08:08;100909.75;;;18.42;90.31
73651;BME280;61944;52.538;6.108;2022-09-13T03:10:46;100904.97;;;18.39;87.92
73651;BME280;61944;52.538;6.108;2022-09-13T03:13:33;100904.16;;;18.39;89.28
73651;BME280;61944;52.538;6.108;2022-09-13T03:16:12;100911.50;;;18.60;83.97
73651;BME280;61944;52.538;6.108;2022-09-13T03:18:50;100910.63;;;18.39;86.96
73651;BME280;61944;52.538;6.108;2022-09-13T03:21:43;100909.38;;;18.40;88.61
73651;BME280;61944;52.538;6.108;2022-09-13T03:24:23;100889.81;;;18.26;90.55
73651;BME280;61944;52.538;6.108;2022-09-13T03:30:06;100898.78;;;18.44;86.63
73651;BME280;61944;52.538;6.108;2022-09-13T03:32:38;100901.25;;;18.42;93.13
73651;BME280;61944;52.538;6.108;2022-09-13T03:38:11;100907.03;;;18.59;84.02
73651;BME280;61944;52.538;6.108;2022-09-13T03:43:16;100904.78;;;18.26;93.40
73651;BME280;61944;52.538;6.108;2022-09-13T03:45:50;100887.06;;;18.42;88.71
73651;BME280;61944;52.538;6.108;2022-09-13T03:48:17;100897.34;;;18.36;88.69
73651;BME280;61944;52.538;6.108;2022-09-13T03:50:45;100888.69;;;18.43;92.37
73651;BME280;61944;52.538;6.108;2022-09-13T03:53:14;100889.91;;;18.42;87.35
73651;BME280;61944;52.538;6.108;2022-09-13T03:55:42;100894.38;;;18.43;87.99
73651;BME280;61944;52.538;6.108;2022-09-13T03:58:10;100890.06;;;18.35;93.05
73651;BME280;61944;52.538;6.108;2022-09-13T04:00:36;100888.84;;;18.36;93.52
73651;BME280;61944;52.538;6.108;2022-09-13T04:03:02;100894.75;;;18.22;93.83
73651;BME280;61944;52.538;6.108;2022-09-13T04:05:27;100892.56;;;18.29;88.01
73651;BME280;61944;52.538;6.108;2022-09-13T04:07:53;100896.31;;;18.46;86.99
73651;BME280;61944;52.538;6.108;2022-09-13T04:10:18;100887.97;;;18.39;86.54
73651;BME280;61944;52.538;6.108;2022-09-13T04:12:44;100902.75;;;18.27;92.48
73651;BME280;61944;52.538;6.108;2022-09-13T04:15:10;100897.06;;;18.27;92.34
73651;BME280;61944;52.538;6.108;2022-09-13T04:17:35;100901.25;;;18.19;92.83
73651;BME280;61944;52.538;6.108;2022-09-13T04:20:00;100900.28;;;18.29;88.98
73651;BME280;61944;52.538;6.108;2022-09-13T04:22:26;100910.81;;;18.28;92.63
73651;BME280;61944;52.538;6.108;2022-09-13T04:24:51;100896.97;;;18.34;91.01
73651;BME280;61944;52.538;6.108;2022-09-13T04:27:17;100902.13;;;18.39;86.34
73651;BME280;61944;52.538;6.108;2022-09-13T04:29:42;100902.13;;;18.39;91.82
73651;BME280;61944;52.538;6.108;2022-09-13T04:32:08;100898.34;;;18.46;87.80
73651;BME280;61944;52.538;6.108;2022-09-13T04:34:34;100913.84;;;18.41;92.05
73651;BME280;61944;52.538;6.108;2022-09-13T04:36:59;100911.41;;;18.40;91.24
73651;BME280;61944;52.538;6.108;2022-09-13T04:39:25;100912.59;;;18.19;95.95
73651;BME280;61944;52.538;6.108;2022-09-13T04:41:51;100913.38;;;18.19;91.03
73651;BME280;61944;52.538;6.108;2022-09-13T04:44:19;100901.38;;;18.35;90.04
73651;BME280;61944;52.538;6.108;2022-09-13T04:46:46;100906.69;;;18.33;91.08
73651;BME280;61944;52.538;6.108;2022-09-13T04:49:13;100904.09;;;18.42;88.47
73651;BME280;61944;52.538;6.108;2022-09-13T04:51:39;100901.38;;;18.12;91.59
73651;BME280;61944;52.538;6.108;2022-09-13T04:54:05;100908.53;;;18.20;92.43
73651;BME280;61944;52.538;6.108;2022-09-13T04:56:30;100913.59;;;18.32;88.03
73651;BME280;61944;52.538;6.108;2022-09-13T04:58:55;100914.75;;;18.35;87.75
73651;BME280;61944;52.538;6.108;2022-09-13T05:01:22;100914.81;;;18.31;90.18
73651;BME280;61944;52.538;6.108;2022-09-13T05:03:50;100917.03;;;18.20;93.93
73651;BME280;61944;52.538;6.108;2022-09-13T05:06:16;100912.75;;;18.08;96.79
73651;BME280;61944;52.538;6.108;2022-09-13T05:08:42;100914.19;;;18.20;89.19
73651;BME280;61944;52.538;6.108;2022-09-13T05:11:07;100917.31;;;18.25;90.62
73651;BME280;61944;52.538;6.108;2022-09-13T05:13:33;100920.63;;;18.24;90.15
73651;BME280;61944;52.538;6.108;2022-09-13T05:16:04;100921.09;;;18.19;96.00
73651;BME280;61944;52.538;6.108;2022-09-13T05:18:32;100921.09;;;18.19;89.33
73651;BME280;61944;52.538;6.108;2022-09-13T05:20:58;100914.19;;;18.20;89.05
73651;BME280;61944;52.538;6.108;2022-09-13T05:23:24;100923.38;;;18.27;89.81
73651;BME280;61944;52.538;6.108;2022-09-13T05:25:58;100918.19;;;18.22;88.44
73651;BME280;61944;52.538;6.108;2022-09-13T05:28:26;100922.88;;;18.33;88.70
73651;BME280;61944;52.538;6.108;2022-09-13T05:31:07;100918.00;;;18.33;93.23
73651;BME280;61944;52.538;6.108;2022-09-13T05:33:34;100919.91;;;18.16;89.82
73651;BME280;61944;52.538;6.108;2022-09-13T05:36:00;100924.28;;;18.21;93.91
73651;BME280;61944;52.538;6.108;2022-09-13T05:38:26;100930.97;;;18.34;87.19
73651;BME280;61944;52.538;6.108;2022-09-13T05:40:59;100929.34;;;18.33;92.74
73651;BME280;61944;52.538;6.108;2022-09-13T05:43:26;100935.38;;;18.35;90.39
73651;BME280;61944;52.538;6.108;2022-09-13T05:46:10;100928.50;;;18.36;87.07
73651;BME280;61944;52.538;6.108;2022-09-13T05:48:36;100930.69;;;18.25;90.49
73651;BME280;61944;52.538;6.108;2022-09-13T05:51:11;100935.91;;;18.30;90.58
73651;BME280;61944;52.538;6.108;2022-09-13T05:53:38;100946.47;;;18.26;95.93
73651;BME280;61944;52.538;6.108;2022-09-13T05:56:05;100955.78;;;18.26;93.58
73651;BME280;61944;52.538;6.108;2022-09-13T05:58:31;100952.53;;;18.28;92.58
73651;BME280;61944;52.538;6.108;2022-09-13T06:00:57;100964.66;;;18.28;92.31
73651;BME280;61944;52.538;6.108;2022-09-13T06:03:23;100967.31;;;18.39;92.82
73651;BME280;61944;52.538;6.108;2022-09-13T06:05:48;100971.13;;;18.53;92.37
73651;BME280;61944;52.538;6.108;2022-09-13T06:08:14;100969.91;;;18.30;95.39
73651;BME280;61944;52.538;6.108;2022-09-13T06:10:39;100976.78;;;18.29;93.86
73651;BME280;61944;52.538;6.108;2022-09-13T06:13:05;100974.47;;;18.47;96.13
73651;BME280;61944;52.538;6.108;2022-09-13T06:15:30;100979.75;;;18.45;94.32
73651;BME280;61944;52.538;6.108;2022-09-13T06:17:55;100978.13;;;18.44;92.87
73651;BME280;61944;52.538;6.108;2022-09-13T06:20:21;100983.56;;;18.35;99.95
73651;BME280;61944;52.538;6.108;2022-09-13T06:22:47;100981.44;;;18.43;96.91
73651;BME280;61944;52.538;6.108;2022-09-13T06:25:13;100982.53;;;18.49;95.48
73651;BME280;61944;52.538;6.108;2022-09-13T06:27:38;100982.53;;;18.49;90.56
73651;BME280;61944;52.538;6.108;2022-09-13T06:30:04;100971.06;;;18.56;89.23
73651;BME280;61944;52.538;6.108;2022-09-13T06:32:32;100981.28;;;18.50;89.97
73651;BME280;61944;52.538;6.108;2022-09-13T06:34:58;100987.47;;;18.45;94.15
73651;BME280;61944;52.538;6.108;2022-09-13T06:37:24;100984.19;;;18.46;90.76
73651;BME280;61944;52.538;6.108;2022-09-13T06:39:49;100988.72;;;18.40;96.42
73651;BME280;61944;52.538;6.108;2022-09-13T06:42:15;100985.06;;;18.43;93.46
73651;BME280;61944;52.538;6.108;2022-09-13T06:44:40;100981.97;;;18.34;94.67
73651;BME280;61944;52.538;6.108;2022-09-13T06:47:05;100978.78;;;18.32;95.65
73651;BME280;61944;52.538;6.108;2022-09-13T06:49:31;100984.34;;;18.36;92.76
73651;BME280;61944;52.538;6.108;2022-09-13T06:51:56;100983.56;;;18.35;93.01
73651;BME280;61944;52.538;6.108;2022-09-13T06:54:22;100984.31;;;18.39;95.92
73651;BME280;61944;52.538;6.108;2022-09-13T06:56:47;100992.84;;;18.36;93.52
73651;BME280;61944;52.538;6.108;2022-09-13T06:59:13;100989.47;;;18.44;95.06
73651;BME280;61944;52.538;6.108;2022-09-13T07:01:40;100989.06;;;18.46;91.72
73651;BME280;61944;52.538;6.108;2022-09-13T07:04:15;100995.66;;;18.39;95.11
73651;BME280;61944;52.538;6.108;2022-09-13T07:06:43;100992.44;;;18.37;95.21
73651;BME280;61944;52.538;6.108;2022-09-13T07:09:14;100987.38;;;18.48;94.47
73651;BME280;61944;52.538;6.108;2022-09-13T07:11:41;100990.66;;;18.47;90.17
73651;BME280;61944;52.538;6.108;2022-09-13T07:14:07;100987.50;;;18.41;91.23
73651;BME280;61944;52.538;6.108;2022-09-13T07:16:36;100984.25;;;18.43;94.44
73651;BME280;61944;52.538;6.108;2022-09-13T07:19:04;100989.66;;;18.34;93.35
73651;BME280;61944;52.538;6.108;2022-09-13T07:21:31;100989.59;;;18.37;91.21
73651;BME280;61944;52.538;6.108;2022-09-13T07:23:57;100990.56;;;18.27;96.07
73651;BME280;61944;52.538;6.108;2022-09-13T07:26:24;100993.06;;;18.48;89.36
73651;BME280;61944;52.538;6.108;2022-09-13T07:28:53;100982.72;;;18.62;92.49
73651;BME280;61944;52.538;6.108;2022-09-13T07:31:20;100984.94;;;18.51;92.30
73651;BME280;61944;52.538;6.108;2022-09-13T07:33:49;100978.69;;;18.59;91.35
73651;BME280;61944;52.538;6.108;2022-09-13T07:36:17;100978.47;;;18.50;93.06
73651;BME280;61944;52.538;6.108;2022-09-13T07:38:43;100980.75;;;18.59;95.62
73651;BME280;61944;52.538;6.108;2022-09-13T07:41:14;100989.31;;;18.55;96.05
73651;BME280;61944;52.538;6.108;2022-09-13T07:43:40;100989.66;;;18.57;88.56
73651;BME280;61944;52.538;6.108;2022-09-13T07:46:07;100991.09;;;18.69;91.37
73651;BME280;61944;52.538;6.108;2022-09-13T07:48:35;100988.25;;;18.69;90.25
73651;BME280;61944;52.538;6.108;2022-09-13T07:51:03;100996.63;;;18.76;92.83
73651;BME280;61944;52.538;6.108;2022-09-13T07:53:29;100995.91;;;18.72;90.59
73651;BME280;61944;52.538;6.108;2022-09-13T07:56:12;101003.19;;;18.73;88.26
73651;BME280;61944;52.538;6.108;2022-09-13T07:58:39;100999.47;;;18.76;89.59
73651;BME280;61944;52.538;6.108;2022-09-13T08:01:13;100998.97;;;18.85;90.98
73651;BME280;61944;52.538;6.108;2022-09-13T08:03:40;100994.41;;;19.11;87.88
73651;BME280;61944;52.538;6.108;2022-09-13T08:06:06;100998.00;;;19.15;89.03
73651;BME280;61944;52.538;6.108;2022-09-13T08:08:32;101001.59;;;18.96;90.07
73651;BME280;61944;52.538;6.108;2022-09-13T08:10:59;101003.56;;;18.99;86.53
73651;BME280;61944;52.538;6.108;2022-09-13T08:13:25;101003.81;;;19.08;89.45
73651;BME280;61944;52.538;6.108;2022-09-13T08:15:51;101011.22;;;19.02;90.67
73651;BME280;61944;52.538;6.108;2022-09-13T08:18:17;101008.66;;;19.07;89.47
73651;BME280;61944;52.538;6.108;2022-09-13T08:20:42;101018.91;;;19.01;90.93
73651;BME280;61944;52.538;6.108;2022-09-13T08:23:09;101026.94;;;19.06;87.01
73651;BME280;61944;52.538;6.108;2022-09-13T08:25:35;101026.78;;;19.14;90.28
73651;BME280;61944;52.538;6.108;2022-09-13T08:28:13;101031.53;;;19.20;90.06
73651;BME280;61944;52.538;6.108;2022-09-13T08:30:40;101033.50;;;19.23;90.02
73651;BME280;61944;52.538;6.108;2022-09-13T08:33:08;101033.94;;;19.22;89.44
73651;BME280;61944;52.538;6.108;2022-09-13T08:35:33;101036.34;;;19.23;85.30
73651;BME280;61944;52.538;6.108;2022-09-13T08:37:59;101043.63;;;19.24;88.47
73651;BME280;61944;52.538;6.108;2022-09-13T08:40:31;101047.34;;;19.21;88.53
73651;BME280;61944;52.538;6.108;2022-09-13T08:43:10;101042.88;;;19.20;85.42
73651;BME280;61944;52.538;6.108;2022-09-13T08:45:41;101028.69;;;19.20;88.26
73651;BME280;61944;52.538;6.108;2022-09-13T08:48:13;101031.47;;;19.24;85.83
73651;BME280;61944;52.538;6.108;2022-09-13T08:50:40;101028.94;;;19.29;88.32
73651;BME280;61944;52.538;6.108;2022-09-13T08:53:27;101031.13;;;19.42;87.22
73651;BME280;61944;52.538;6.108;2022-09-13T08:56:09;101030.94;;;19.53;86.65
73651;BME280;61944;52.538;6.108;2022-09-13T09:01:41;101022.53;;;19.65;88.45
73651;BME280;61944;52.538;6.108;2022-09-13T09:04:20;101011.25;;;19.62;85.83
73651;BME280;61944;52.538;6.108;2022-09-13T09:09:40;101013.78;;;19.56;86.60
73651;BME280;61944;52.538;6.108;2022-09-13T09:12:18;101015.41;;;19.57;86.47
73651;BME280;61944;52.538;6.108;2022-09-13T09:14:58;101011.22;;;20.02;83.82
73651;BME280;61944;52.538;6.108;2022-09-13T09:17:41;101009.03;;;20.09;81.68
73651;BME280;61944;52.538;6.108;2022-09-13T09:20:29;101007.81;;;20.27;81.89
73651;BME280;61944;52.538;6.108;2022-09-13T09:23:00;101013.22;;;20.58;80.94
73651;BME280;61944;52.538;6.108;2022-09-13T09:25:26;101020.25;;;20.33;81.70
73651;BME280;61944;52.538;6.108;2022-09-13T09:27:52;101029.56;;;20.17;82.96
73651;BME280;61944;52.538;6.108;2022-09-13T09:30:19;101025.47;;;19.82;83.78
73651;BME280;61944;52.538;6.108;2022-09-13T09:40:34;101033.41;;;19.70;81.63
73651;BME280;61944;52.538;6.108;2022-09-13T09:43:11;101024.50;;;19.68;81.48
73651;BME280;61944;52.538;6.108;2022-09-13T09:45:39;101026.50;;;19.72;81.54
73651;BME280;61944;52.538;6.108;2022-09-13T09:48:13;101013.03;;;19.76;81.80
73651;BME280;61944;52.538;6.108;2022-09-13T09:50:43;101015.53;;;19.90;80.77
73651;BME280;61944;52.538;6.108;2022-09-13T09:53:15;101016.06;;;20.05;80.92
73651;BME280;61944;52.538;6.108;2022-09-13T09:55:57;101014.88;;;20.02;78.49
73651;BME280;61944;52.538;6.108;2022-09-13T09:58:39;101017.00;;;19.98;78.36
73651;BME280;61944;52.538;6.108;2022-09-13T10:03:39;101013.13;;;20.25;76.52
73651;BME280;61944;52.538;6.108;2022-09-13T10:06:14;101021.63;;;20.08;79.83
73651;BME280;61944;52.538;6.108;2022-09-13T10:08:45;101020.03;;;20.07;78.57
73651;BME280;61944;52.538;6.108;2022-09-13T10:11:12;101028.75;;;20.17;78.81
73651;BME280;61944;52.538;6.108;2022-09-13T10:13:37;101027.78;;;20.23;79.89
73651;BME280;61944;52.538;6.108;2022-09-13T10:16:20;101027.88;;;20.36;77.75
73651;BME280;61944;52.538;6.108;2022-09-13T10:18:47;101024.78;;;20.47;75.38
73651;BME280;61944;52.538;6.108;2022-09-13T10:23:45;101022.63;;;20.71;74.90
73651;BME280;61944;52.538;6.108;2022-09-13T10:26:17;101022.25;;;20.69;74.87
73651;BME280;61944;52.538;6.108;2022-09-13T10:28:54;101025.78;;;20.57;76.61
73651;BME280;61944;52.538;6.108;2022-09-13T10:31:27;101021.25;;;20.43;76.16
73651;BME280;61944;52.538;6.108;2022-09-13T10:33:57;101017.25;;;20.57;75.84
73651;BME280;61944;52.538;6.108;2022-09-13T10:36:26;101019.75;;;20.55;74.18
73651;BME280;61944;52.538;6.108;2022-09-13T10:39:14;101028.81;;;20.49;74.24
73651;BME280;61944;52.538;6.108;2022-09-13T10:41:48;101027.44;;;20.58;75.24
73651;BME280;61944;52.538;6.108;2022-09-13T10:44:37;101019.75;;;20.55;72.86
73651;BME280;61944;52.538;6.108;2022-09-13T10:47:18;101019.94;;;20.47;75.29
73651;BME280;61944;52.538;6.108;2022-09-13T10:49:49;101024.25;;;20.36;73.05
73651;BME280;61944;52.538;6.108;2022-09-13T10:52:45;101021.69;;;20.41;74.22
73651;BME280;61944;52.538;6.108;2022-09-13T10:57:44;101016.97;;;20.51;72.86
73651;BME280;61944;52.538;6.108;2022-09-13T11:00:11;101027.13;;;20.52;77.52
73651;BME280;61944;52.538;6.108;2022-09-13T11:03:05;101025.44;;;20.55;73.22
73651;BME280;61944;52.538;6.108;2022-09-13T11:05:43;101032.03;;;20.68;73.16
73651;BME280;61944;52.538;6.108;2022-09-13T11:08:17;101034.28;;;20.40;71.12
73651;BME280;61944;52.538;6.108;2022-09-13T11:10:57;101032.38;;;20.54;76.24
73651;BME280;61944;52.538;6.108;2022-09-13T11:13:56;101025.72;;;20.60;72.68
73651;BME280;61944;52.538;6.108;2022-09-13T11:22:43;101027.31;;;20.78;73.56
73651;BME280;61944;52.538;6.108;2022-09-13T11:28:02;101031.06;;;20.75;68.04
73651;BME280;61944;52.538;6.108;2022-09-13T11:30:48;101031.31;;;20.64;71.85
73651;BME280;61944;52.538;6.108;2022-09-13T11:33:31;101025.97;;;20.82;70.17
73651;BME280;61944;52.538;6.108;2022-09-13T11:39:27;101028.97;;;21.37;67.54
73651;BME280;61944;52.538;6.108;2022-09-13T11:44:39;101014.25;;;21.42;65.14
73651;BME280;61944;52.538;6.108;2022-09-13T11:52:35;101018.28;;;21.58;61.60
73651;BME280;61944;52.538;6.108;2022-09-13T11:55:13;101003.97;;;21.74;62.64
73651;BME280;61944;52.538;6.108;2022-09-13T11:57:48;101012.19;;;21.85;58.66
73651;BME280;61944;52.538;6.108;2022-09-13T12:00:29;101002.84;;;21.42;59.39
73651;BME280;61944;52.538;6.108;2022-09-13T12:05:53;100996.34;;;21.42;59.73
73651;BME280;61944;52.538;6.108;2022-09-13T12:08:24;100996.94;;;21.49;59.97
73651;BME280;61944;52.538;6.108;2022-09-13T12:11:14;100995.41;;;21.74;64.38
73651;BME280;61944;52.538;6.108;2022-09-13T12:13:55;100998.81;;;21.40;60.07
73651;BME280;61944;52.538;6.108;2022-09-13T12:16:31;101006.13;;;21.41;65.45
73651;BME280;61944;52.538;6.108;2022-09-13T12:19:00;101000.81;;;21.26;67.23
73651;BME280;61944;52.538;6.108;2022-09-13T12:21:34;101000.28;;;21.31;64.65
73651;BME280;61944;52.538;6.108;2022-09-13T12:24:04;100999.13;;;21.58;59.22
73651;BME280;61944;52.538;6.108;2022-09-13T12:29:27;100993.41;;;21.29;60.21
73651;BME280;61944;52.538;6.108;2022-09-13T12:31:58;100999.63;;;21.40;59.23
73651;BME280;61944;52.538;6.108;2022-09-13T12:37:33;100993.47;;;21.84;63.57
73651;BME280;61944;52.538;6.108;2022-09-13T12:42:42;100985.97;;;21.90;58.88
73651;BME280;61944;52.538;6.108;2022-09-13T12:47:52;100992.34;;;21.94;55.50
73651;BME280;61944;52.538;6.108;2022-09-13T12:50:48;100990.19;;;22.11;59.85
73651;BME280;61944;52.538;6.108;2022-09-13T13:01:30;100990.06;;;22.66;53.82
73651;BME280;61944;52.538;6.108;2022-09-13T13:09:36;100992.19;;;22.27;56.80
73651;BME280;61944;52.538;6.108;2022-09-13T13:12:10;100989.53;;;22.45;56.52
73651;BME280;61944;52.538;6.108;2022-09-13T13:17:40;100994.78;;;22.34;60.96
73651;BME280;61944;52.538;6.108;2022-09-13T13:34:24;100994.31;;;22.48;59.12
73651;BME280;61944;52.538;6.108;2022-09-13T13:36:50;100990.41;;;22.68;55.33
73651;BME280;61944;52.538;6.108;2022-09-13T13:41:57;100986.44;;;22.14;59.75
73651;BME280;61944;52.538;6.108;2022-09-13T13:46:54;100995.50;;;21.58;59.16
73651;BME280;61944;52.538;6.108;2022-09-13T13:57:49;100992.47;;;21.90;58.51
73651;BME280;61944;52.538;6.108;2022-09-13T14:00:19;100995.09;;;21.85;54.45
73651;BME280;61944;52.538;6.108;2022-09-13T14:11:26;101000.34;;;21.99;55.74
73651;BME280;61944;52.538;6.108;2022-09-13T14:19:23;100988.78;;;21.77;59.12
73651;BME280;61944;52.538;6.108;2022-09-13T14:22:24;100997.63;;;21.54;58.50
73651;BME280;61944;52.538;6.108;2022-09-13T14:24:54;100993.09;;;21.56;62.02
73651;BME280;61944;52.538;6.108;2022-09-13T14:29:53;100987.25;;;22.02;57.58
73651;BME280;61944;52.538;6.108;2022-09-13T14:32:21;100988.81;;;22.16;60.71
73651;BME280;61944;52.538;6.108;2022-09-13T14:34:58;100987.59;;;22.29;57.20
73651;BME280;61944;52.538;6.108;2022-09-13T14:37:34;100995.59;;;22.47;57.79
73651;BME280;61944;52.538;6.108;2022-09-13T14:40:23;100994.31;;;22.48;60.43
73651;BME280;61944;52.538;6.108;2022-09-13T14:42:50;101004.03;;;22.38;54.84
73651;BME280;61944;52.538;6.108;2022-09-13T14:45:21;100998.84;;;22.71;52.08
73651;BME280;61944;52.538;6.108;2022-09-13T14:50:54;100990.47;;;23.03;52.64
73651;BME280;61944;52.538;6.108;2022-09-13T14:53:23;100994.00;;;23.07;56.87
73651;BME280;61944;52.538;6.108;2022-09-13T14:55:53;100995.97;;;22.84;56.29
73651;BME280;61944;52.538;6.108;2022-09-13T14:58:25;100994.72;;;22.72;54.06
73651;BME280;61944;52.538;6.108;2022-09-13T15:00:56;100987.31;;;22.75;53.89
73651;BME280;61944;52.538;6.108;2022-09-13T15:03:23;100984.59;;;22.59;54.92
73651;BME280;61944;52.538;6.108;2022-09-13T15:05:52;100991.72;;;22.41;55.60
73651;BME280;61944;52.538;6.108;2022-09-13T15:08:26;100977.56;;;22.25;56.96
73651;BME280;61944;52.538;6.108;2022-09-13T15:11:01;100976.94;;;22.56;56.10
73651;BME280;61944;52.538;6.108;2022-09-13T15:13:27;100985.06;;;22.19;55.98
73651;BME280;61944;52.538;6.108;2022-09-13T15:15:54;100983.81;;;21.94;58.32
73651;BME280;61944;52.538;6.108;2022-09-13T15:20:56;100985.06;;;22.19;57.62
73651;BME280;61944;52.538;6.108;2022-09-13T15:23:38;100979.63;;;22.24;55.01
73651;BME280;61944;52.538;6.108;2022-09-13T15:26:10;100979.63;;;22.24;55.40
73651;BME280;61944;52.538;6.108;2022-09-13T15:31:06;100982.66;;;21.91;58.73
73651;BME280;61944;52.538;6.108;2022-09-13T15:33:33;100977.53;;;21.74;58.05
73651;BME280;61944;52.538;6.108;2022-09-13T15:41:40;100993.03;;;21.43;57.12
73651;BME280;61944;52.538;6.108;2022-09-13T15:44:06;100985.66;;;21.46;63.54
73651;BME280;61944;52.538;6.108;2022-09-13T15:46:42;100988.44;;;21.62;60.85
73651;BME280;61944;52.538;6.108;2022-09-13T15:49:14;100994.28;;;21.84;58.98
73651;BME280;61944;52.538;6.108;2022-09-13T15:51:41;100997.38;;;21.90;58.73
73651;BME280;61944;52.538;6.108;2022-09-13T15:54:15;100986.66;;;21.94;62.99
73651;BME280;61944;52.538;6.108;2022-09-13T15:56:43;100980.69;;;21.63;62.51
73651;BME280;61944;52.538;6.108;2022-09-13T15:59:13;100986.06;;;21.74;63.27